Time;durP1;ratioP1;P1;durP2;ratioP2;P2;SDS_P1;SDS_P2;PMS_P1;PMS_P2;Temp;Humidity;BMP_temperature;BMP_pressure;BME280_temperature;BME280_humidity;BME280_pressure;Samples;Min_cycle;Max_cycle;Signal;HPM_P1;HPM_P2
2023/04/29 00:02:03;;;;;;;;;;;;;;;25.85;41.24;94079.72;4920581;29;7745;-62
2023/04/29 00:04:29;;;;;;;;;;;;;;;25.84;40.76;94077.47;4919494;29;7047;-63
2023/04/29 00:06:56;;;;;;;;;;;;;;;25.84;41.77;94080.22;4936577;28;9117;-63
2023/04/29 00:09:23;;;;;;;;;;;;;;;25.84;41.28;94078.22;4954357;28;9241;-63
2023/04/29 00:11:57;;;;;;;;;;;;;;;25.82;41.01;94085.50;4957237;28;7107;-63
2023/04/29 00:14:34;;;;;;;;;;;;;;;25.80;41.51;94077.00;5055847;28;8254;-63
2023/04/29 00:17:17;;;;;;;;;;;;;;;25.81;40.91;94068.25;5050769;28;9433;-63
2023/04/29 00:19:45;;;;;;;;;;;;;;;25.82;41.27;94068.97;5058036;28;7239;-63
2023/04/29 00:22:37;;;;;;;;;;;;;;;25.84;41.12;94061.69;5055089;28;7038;-62
2023/04/29 00:25:06;;;;;;;;;;;;;;;25.82;41.64;94047.69;5040465;28;7332;-62
2023/04/29 00:27:32;;;;;;;;;;;;;;;25.83;41.21;94049.19;5058564;28;9380;-63
2023/04/29 00:30:02;;;;;;;;;;;;;;;25.85;40.84;94046.66;5051085;28;7278;-62
2023/04/29 00:33:00;;;;;;;;;;;;;;;25.83;41.91;94046.44;5072758;28;7269;-63
2023/04/29 00:35:26;;;;;;;;;;;;;;;25.84;41.85;94052.66;5063414;28;9447;-63
2023/04/29 00:37:53;;;;;;;;;;;;;;;25.85;40.76;94054.16;5047265;28;9136;-63
2023/04/29 00:40:30;;;;;;;;;;;;;;;25.80;40.90;94050.22;5055758;28;7506;-63
2023/04/29 00:43:12;;;;;;;;;;;;;;;25.81;41.49;94046.22;5037835;28;7044;-62
2023/04/29 00:45:51;;;;;;;;;;;;;;;25.84;41.33;94052.66;5053866;28;7245;-63
2023/04/29 00:48:18;;;;;;;;;;;;;;;25.82;41.59;94066.97;5045607;28;8779;-63
2023/04/29 00:50:49;;;;;;;;;;;;;;;25.83;40.78;94076.72;5052795;28;9034;-63
2023/04/29 00:53:21;;;;;;;;;;;;;;;25.83;40.81;94078.75;5056038;28;9089;-62
2023/04/29 00:56:20;;;;;;;;;;;;;;;25.81;40.88;94071.00;5058308;28;7260;-63
2023/04/29 00:58:57;;;;;;;;;;;;;;;25.84;41.67;94071.94;4994018;28;9179;-63
2023/04/29 01:01:23;;;;;;;;;;;;;;;25.84;41.61;94060.94;4991055;28;9042;-63
2023/04/29 01:04:15;;;;;;;;;;;;;;;25.84;41.26;94052.66;4996371;28;9110;-63
2023/04/29 01:07:08;;;;;;;;;;;;;;;25.82;41.36;94053.19;4996693;28;7237;-63
2023/04/29 01:10:01;;;;;;;;;;;;;;;25.80;40.74;94055.72;5012711;28;7270;-63
2023/04/29 01:12:58;;;;;;;;;;;;;;;25.82;40.88;94061.47;4996681;28;9379;-63
2023/04/29 01:15:35;;;;;;;;;;;;;;;25.81;41.25;94051.72;5013034;28;7088;-63
2023/04/29 01:18:20;;;;;;;;;;;;;;;25.82;41.21;94042.16;4996778;28;7456;-63
2023/04/29 01:21:05;;;;;;;;;;;;;;;25.81;41.41;94037.19;5013145;28;8243;-63
2023/04/29 01:23:40;;;;;;;;;;;;;;;25.82;41.06;94035.91;5000980;28;8287;-63
2023/04/29 01:26:17;;;;;;;;;;;;;;;25.82;40.83;94035.91;5012985;28;7119;-63
2023/04/29 01:28:52;;;;;;;;;;;;;;;25.82;41.28;94046.94;4996705;28;8993;-63
2023/04/29 01:31:20;;;;;;;;;;;;;;;25.81;41.36;94032.44;5012546;28;7352;-63
2023/04/29 01:34:13;;;;;;;;;;;;;;;25.81;40.97;94029.69;4996059;28;9458;-63
2023/04/29 01:36:52;;;;;;;;;;;;;;;25.81;41.53;94029.69;5043707;28;9393;-63
2023/04/29 01:39:56;;;;;;;;;;;;;;;25.82;40.81;94022.88;5054240;28;8240;-63
2023/04/29 01:42:28;;;;;;;;;;;;;;;25.82;41.72;94025.63;5025353;28;7640;-63
2023/04/29 01:44:59;;;;;;;;;;;;;;;25.82;41.46;94025.63;5013159;28;8924;-63
2023/04/29 01:47:58;;;;;;;;;;;;;;;25.81;41.74;94032.44;5012758;28;8543;-63
2023/04/29 01:50:26;;;;;;;;;;;;;;;25.81;41.15;94028.94;4919215;29;7295;-63
2023/04/29 01:53:09;;;;;;;;;;;;;;;25.79;41.21;94026.69;4916938;29;7364;-63
2023/04/29 01:55:43;;;;;;;;;;;;;;;25.81;41.19;94026.91;4918778;29;9167;-63
2023/04/29 01:58:10;;;;;;;;;;;;;;;25.80;41.85;94025.41;4932975;29;7038;-63
2023/04/29 02:00:39;;;;;;;;;;;;;;;25.78;41.83;94018.94;4934772;29;7052;-63
2023/04/29 02:03:17;;;;;;;;;;;;;;;25.80;41.02;94028.19;4934940;29;7263;-62
2023/04/29 02:05:55;;;;;;;;;;;;;;;25.81;41.01;94024.16;4918671;29;8232;-63
2023/04/29 02:08:39;;;;;;;;;;;;;;;25.82;41.13;94027.66;4919162;29;7609;-63
2023/04/29 02:11:06;;;;;;;;;;;;;;;25.80;41.58;94028.19;4934877;29;7073;-63
2023/04/29 02:13:43;;;;;;;;;;;;;;;25.80;41.35;94022.66;4915440;29;7070;-63
2023/04/29 02:16:13;;;;;;;;;;;;;;;25.79;41.06;94026.69;4932199;29;9310;-63
2023/04/29 02:18:41;;;;;;;;;;;;;;;25.81;41.71;94029.69;4928817;28;7033;-63
2023/04/29 02:21:18;;;;;;;;;;;;;;;25.81;41.21;94021.41;4954477;28;8308;-62
2023/04/29 02:23:46;;;;;;;;;;;;;;;25.81;41.12;94024.16;4955661;28;9073;-62
2023/04/29 02:26:14;;;;;;;;;;;;;;;25.82;41.29;94024.88;4977864;28;7227;-62
2023/04/29 02:28:40;;;;;;;;;;;;;;;25.78;41.16;94016.94;5068979;28;6869;-63
2023/04/29 02:31:08;;;;;;;;;;;;;;;25.83;40.88;94020.88;5050866;28;7065;-63
2023/04/29 02:33:36;;;;;;;;;;;;;;;25.79;41.23;94012.94;5035890;28;9116;-62
2023/04/29 02:36:04;;;;;;;;;;;;;;;25.80;41.63;94006.13;5052449;28;7028;-63
2023/04/29 02:38:32;;;;;;;;;;;;;;;25.83;41.60;94004.34;5061648;28;8997;-63
2023/04/29 02:41:07;;;;;;;;;;;;;;;25.80;40.96;94005.38;5053395;28;8827;-63
2023/04/29 02:43:35;;;;;;;;;;;;;;;25.79;41.13;94015.69;5036216;28;7315;-63
2023/04/29 02:46:01;;;;;;;;;;;;;;;25.82;41.08;94008.34;5064288;28;8122;-63
2023/04/29 02:48:29;;;;;;;;;;;;;;;25.81;41.59;94015.91;5036054;28;7313;-63
2023/04/29 02:50:55;;;;;;;;;;;;;;;25.83;40.84;94021.63;5036561;28;8943;-62
2023/04/29 02:53:34;;;;;;;;;;;;;;;25.82;41.35;94019.38;5069358;28;7303;-63
2023/04/29 02:56:00;;;;;;;;;;;;;;;25.84;41.21;94011.34;5053788;28;7134;-63
2023/04/29 02:58:26;;;;;;;;;;;;;;;25.83;40.61;94009.88;5055229;28;9439;-63
2023/04/29 03:00:52;;;;;;;;;;;;;;;25.83;41.33;94013.38;5042825;28;8955;-63
2023/04/29 03:03:32;;;;;;;;;;;;;;;25.85;41.44;94021.84;5040862;28;7237;-63
2023/04/29 03:06:07;;;;;;;;;;;;;;;25.83;40.84;94020.88;5077000;28;7301;-63
2023/04/29 03:08:58;;;;;;;;;;;;;;;25.84;41.04;94025.88;5056605;28;8952;-63
2023/04/29 03:11:25;;;;;;;;;;;;;;;25.82;40.90;94020.13;5056051;28;7217;-63
2023/04/29 03:14:19;;;;;;;;;;;;;;;25.85;41.65;94026.63;5039723;28;7119;-63
2023/04/29 03:16:58;;;;;;;;;;;;;;;25.81;41.07;94018.66;4978705;28;7208;-63
2023/04/29 03:19:41;;;;;;;;;;;;;;;25.85;40.76;94030.13;4995816;28;7050;-63
2023/04/29 03:22:14;;;;;;;;;;;;;;;25.83;41.11;94018.88;4979419;28;9306;-63
2023/04/29 03:24:39;;;;;;;;;;;;;;;25.85;41.52;94023.84;4963627;28;9119;-63
2023/04/29 03:27:06;;;;;;;;;;;;;;;25.83;41.51;94024.38;4960290;28;8999;-62
2023/04/29 03:29:41;;;;;;;;;;;;;;;25.82;41.81;94008.34;4976227;28;9700;-62
2023/04/29 03:32:08;;;;;;;;;;;;;;;25.81;41.53;94004.88;4991181;28;9134;-62
2023/04/29 03:34:34;;;;;;;;;;;;;;;25.81;41.14;94006.88;4974554;28;7136;-63
2023/04/29 03:37:05;;;;;;;;;;;;;;;25.84;40.95;94011.34;4966290;28;7212;-63
2023/04/29 03:39:31;;;;;;;;;;;;;;;25.86;41.12;94014.34;4992521;28;7015;-63
2023/04/29 03:42:29;;;;;;;;;;;;;;;25.86;41.42;94009.56;4976977;28;7298;-63
2023/04/29 03:45:05;;;;;;;;;;;;;;;25.86;41.30;94014.34;4956529;28;7026;-63
2023/04/29 03:47:44;;;;;;;;;;;;;;;25.85;41.32;94008.09;4926454;28;7034;-63
2023/04/29 03:50:22;;;;;;;;;;;;;;;25.85;41.00;94002.56;4950706;28;8258;-62
2023/04/29 03:52:50;;;;;;;;;;;;;;;25.81;41.45;93996.63;4939721;28;9170;-62
2023/04/29 03:55:16;;;;;;;;;;;;;;;25.82;41.83;93998.09;4958120;28;7289;-62
2023/04/29 03:57:43;;;;;;;;;;;;;;;25.81;41.81;93990.34;4957609;28;7214;-62
2023/04/29 04:00:17;;;;;;;;;;;;;;;25.82;41.86;93989.06;4956448;28;8919;-63
2023/04/29 04:02:53;;;;;;;;;;;;;;;25.83;41.12;93996.84;4940163;28;9124;-63
2023/04/29 04:05:29;;;;;;;;;;;;;;;25.81;41.38;93991.09;4957479;28;7832;-63
2023/04/29 04:08:29;;;;;;;;;;;;;;;25.79;41.90;93993.66;4975655;28;7229;-63
2023/04/29 04:11:13;;;;;;;;;;;;;;;25.82;41.61;93997.34;4911860;29;8208;-63
2023/04/29 04:13:45;;;;;;;;;;;;;;;25.81;41.54;94004.88;4891970;29;7116;-63
2023/04/29 04:16:19;;;;;;;;;;;;;;;25.81;41.58;94001.38;4917225;29;7873;-64
2023/04/29 04:18:48;;;;;;;;;;;;;;;25.78;42.04;93999.66;4918024;29;8735;-63
2023/04/29 04:21:22;;;;;;;;;;;;;;;25.81;41.17;94013.16;4959551;28;7268;-63
2023/04/29 04:23:57;;;;;;;;;;;;;;;25.78;41.39;94016.94;5013948;28;7357;-63
2023/04/29 04:26:34;;;;;;;;;;;;;;;25.82;42.14;94025.63;4998257;28;8800;-63
2023/04/29 04:29:21;;;;;;;;;;;;;;;25.79;41.34;94025.94;5015216;28;9053;-63
2023/04/29 04:31:58;;;;;;;;;;;;;;;25.78;41.94;94025.19;4994646;28;7273;-63
2023/04/29 04:34:29;;;;;;;;;;;;;;;25.82;41.80;94036.66;4999005;28;9065;-63
2023/04/29 04:36:58;;;;;;;;;;;;;;;25.81;41.54;94040.69;4992234;28;7436;-62
2023/04/29 04:39:26;;;;;;;;;;;;;;;25.79;41.84;94040.47;5004821;28;9036;-63
2023/04/29 04:42:03;;;;;;;;;;;;;;;25.80;41.26;94039.19;5013857;28;8292;-63
2023/04/29 04:44:29;;;;;;;;;;;;;;;25.81;41.13;94040.69;4986065;28;9227;-63
2023/04/29 04:47:05;;;;;;;;;;;;;;;25.79;41.91;94042.47;5032451;28;8845;-63
2023/04/29 04:49:44;;;;;;;;;;;;;;;25.84;41.46;94045.16;5062886;28;7043;-63
2023/04/29 04:52:19;;;;;;;;;;;;;;;25.82;41.70;94052.44;5037663;28;9850;-63
2023/04/29 04:54:52;;;;;;;;;;;;;;;25.83;41.71;94051.19;5054681;28;9137;-63
2023/04/29 04:57:20;;;;;;;;;;;;;;;25.81;41.19;94051.72;5041411;28;7023;-63
2023/04/29 04:59:52;;;;;;;;;;;;;;;25.82;42.04;94057.94;5060755;28;9076;-63
2023/04/29 05:02:26;;;;;;;;;;;;;;;25.79;41.61;94062.50;5038115;28;7104;-62
2023/04/29 05:04:59;;;;;;;;;;;;;;;25.81;41.46;94068.25;5053480;28;9037;-63
2023/04/29 05:07:25;;;;;;;;;;;;;;;25.78;42.07;94063.75;5049643;28;7351;-62
2023/04/29 05:10:03;;;;;;;;;;;;;;;25.79;41.95;94070.78;5055351;28;9149;-62
2023/04/29 05:12:35;;;;;;;;;;;;;;;25.75;41.48;94073.06;5046286;28;9091;-63
2023/04/29 05:15:41;;;;;;;;;;;;;;;25.76;41.85;94068.31;5072022;28;7276;-63
2023/04/29 05:18:16;;;;;;;;;;;;;;;25.76;41.94;94073.81;4995916;28;8466;-63
2023/04/29 05:20:42;;;;;;;;;;;;;;;25.74;41.56;94074.34;4993286;28;7032;-62
2023/04/29 05:23:26;;;;;;;;;;;;;;;25.73;42.29;94075.59;4990712;28;7328;-63
2023/04/29 05:26:12;;;;;;;;;;;;;;;25.74;42.29;94079.84;5006243;28;7265;-62
2023/04/29 05:28:50;;;;;;;;;;;;;;;25.76;42.30;94071.06;4998431;28;7104;-62
2023/04/29 05:31:27;;;;;;;;;;;;;;;25.79;42.46;94064.53;5009037;28;7582;-62
2023/04/29 05:33:58;;;;;;;;;;;;;;;25.79;42.44;94072.78;4999682;28;8689;-63
2023/04/29 05:36:24;;;;;;;;;;;;;;;25.77;41.94;94064.28;5001231;28;7068;-63
2023/04/29 05:38:52;;;;;;;;;;;;;;;25.79;42.30;94065.28;4995627;28;7073;-63
2023/04/29 05:41:19;;;;;;;;;;;;;;;25.78;42.35;94069.28;5003707;28;9187;-63
2023/04/29 05:44:01;;;;;;;;;;;;;;;25.79;41.99;94065.28;4992676;28;7045;-63
2023/04/29 05:46:37;;;;;;;;;;;;;;;25.80;41.96;94072.25;4993426;28;8675;-62
2023/04/29 05:49:09;;;;;;;;;;;;;;;25.80;41.60;94066.75;5021398;28;7029;-63
2023/04/29 05:51:37;;;;;;;;;;;;;;;25.79;41.85;94070.78;5058737;28;9084;-63
2023/04/29 05:54:05;;;;;;;;;;;;;;;25.79;41.92;94081.81;5045788;28;7285;-63
2023/04/29 05:56:34;;;;;;;;;;;;;;;25.81;41.88;94084.03;5042277;28;9409;-63
2023/04/29 05:59:11;;;;;;;;;;;;;;;25.81;41.51;94081.28;5037200;28;9018;-63
2023/04/29 06:01:37;;;;;;;;;;;;;;;25.82;42.23;94089.00;5061008;28;7250;-63
2023/04/29 06:04:12;;;;;;;;;;;;;;;25.82;41.73;94091.75;5054859;28;7122;-63
2023/04/29 06:07:13;;;;;;;;;;;;;;;25.83;42.07;94093.28;5045829;28;7085;-63
2023/04/29 06:09:41;;;;;;;;;;;;;;;25.85;42.15;94099.00;4992450;28;7282;-63
2023/04/29 06:12:17;;;;;;;;;;;;;;;25.83;42.40;94103.53;4978487;28;7184;-63
2023/04/29 06:14:52;;;;;;;;;;;;;;;25.84;42.48;94094.75;4985390;28;9476;-63
2023/04/29 06:17:28;;;;;;;;;;;;;;;25.86;41.99;94110.78;4966997;28;7088;-63
2023/04/29 06:20:06;;;;;;;;;;;;;;;25.83;42.65;94096.03;4989529;28;7081;-62
2023/04/29 06:22:42;;;;;;;;;;;;;;;25.86;42.25;94099.75;4978213;28;7478;-63
2023/04/29 06:25:47;;;;;;;;;;;;;;;25.85;42.20;94101.75;4957261;28;8330;-63
2023/04/29 06:28:29;;;;;;;;;;;;;;;25.86;42.60;94102.50;4918325;29;7208;-63
2023/04/29 06:31:08;;;;;;;;;;;;;;;25.82;42.41;94100.03;4919370;29;7042;-63
2023/04/29 06:33:45;;;;;;;;;;;;;;;25.87;41.74;94098.47;4946473;28;6889;-63
2023/04/29 06:36:40;;;;;;;;;;;;;;;25.87;42.34;94099.22;4926920;29;9023;-63
2023/04/29 06:39:09;;;;;;;;;;;;;;;25.87;42.20;94104.72;4929925;29;7078;-63
2023/04/29 06:41:36;;;;;;;;;;;;;;;25.88;42.18;94100.69;4935852;29;9476;-63
2023/04/29 06:44:02;;;;;;;;;;;;;;;25.89;41.73;94101.44;4928357;29;7556;-63
2023/04/29 06:46:38;;;;;;;;;;;;;;;25.92;41.59;94103.94;4953294;28;7547;-63
2023/04/29 06:49:23;;;;;;;;;;;;;;;25.92;41.56;94105.94;4949753;28;8986;-63
2023/04/29 06:51:50;;;;;;;;;;;;;;;25.93;42.27;94102.66;4972247;28;9209;-63
2023/04/29 06:54:34;;;;;;;;;;;;;;;25.92;42.62;94101.19;4972336;28;7122;-63
2023/04/29 06:57:31;;;;;;;;;;;;;;;25.97;42.37;94102.34;4958445;28;7062;-63
2023/04/29 07:00:07;;;;;;;;;;;;;;;25.96;41.58;94098.88;4912288;29;9116;-62
2023/04/29 07:02:33;;;;;;;;;;;;;;;25.96;42.23;94107.13;4914585;29;8712;-63
2023/04/29 07:05:01;;;;;;;;;;;;;;;25.92;41.97;94098.41;4908607;29;8987;-62
2023/04/29 07:07:33;;;;;;;;;;;;;;;25.93;41.93;94102.66;4917937;29;8552;-62
2023/04/29 07:10:01;;;;;;;;;;;;;;;25.92;41.97;94106.69;4918548;29;9359;-63
2023/04/29 07:12:32;;;;;;;;;;;;;;;25.91;41.90;94105.19;4920159;29;7238;-62
2023/04/29 07:15:01;;;;;;;;;;;;;;;25.97;42.68;94107.84;4920587;28;7100;-62
2023/04/29 07:17:30;;;;;;;;;;;;;;;25.96;44.04;94107.13;4965488;28;8493;-62
2023/04/29 07:20:11;;;;;;;;;;;;;;;26.02;43.10;94107.81;4950889;28;9030;-61
2023/04/29 07:22:50;;;;;;;;;;;;;;;26.02;43.91;94096.03;4951276;28;9346;-62
2023/04/29 07:25:19;;;;;;;;;;;;;;;26.07;44.67;94101.47;4946659;28;9697;-62
2023/04/29 07:27:47;;;;;;;;;;;;;;;26.05;44.65;94109.53;4952934;28;7447;-63
2023/04/29 07:30:13;;;;;;;;;;;;;;;26.06;44.63;94108.25;4946594;28;7227;-62
2023/04/29 07:32:39;;;;;;;;;;;;;;;26.08;45.14;94105.75;4946405;28;9163;-62
2023/04/29 07:35:14;;;;;;;;;;;;;;;26.07;45.11;94118.03;4962882;28;9066;-63
2023/04/29 07:37:45;;;;;;;;;;;;;;;26.06;45.21;94122.03;5039369;28;8977;-62
2023/04/29 07:40:18;;;;;;;;;;;;;;;26.06;45.08;94110.25;5053334;28;7286;-62
2023/04/29 07:42:44;;;;;;;;;;;;;;;26.05;45.21;94112.28;5053670;28;7072;-62
2023/04/29 07:45:13;;;;;;;;;;;;;;;26.08;44.45;94119.53;5054202;28;9245;-62
2023/04/29 07:47:42;;;;;;;;;;;;;;;26.07;44.93;94120.78;5038166;28;6864;-62
2023/04/29 07:50:08;;;;;;;;;;;;;;;26.08;45.11;94125.03;5058354;28;7026;-62
2023/04/29 07:52:35;;;;;;;;;;;;;;;26.06;44.89;94118.53;5074478;28;9059;-62
2023/04/29 07:55:01;;;;;;;;;;;;;;;26.08;44.71;94127.78;5075037;28;7371;-62
2023/04/29 07:57:27;;;;;;;;;;;;;;;26.06;45.01;94122.03;5055537;28;7974;-62
2023/04/29 07:59:58;;;;;;;;;;;;;;;26.07;44.11;94126.28;5036657;28;6988;-62
2023/04/29 08:02:26;;;;;;;;;;;;;;;26.09;44.65;94131.31;5053512;28;7053;-63
2023/04/29 08:04:54;;;;;;;;;;;;;;;26.05;44.63;94117.78;5053809;28;7029;-62
2023/04/29 08:07:20;;;;;;;;;;;;;;;26.09;45.06;94131.31;5053077;28;8731;-63
2023/04/29 08:09:48;;;;;;;;;;;;;;;26.10;44.23;94132.78;5037605;28;9113;-63
2023/04/29 08:12:14;;;;;;;;;;;;;;;26.11;44.52;94134.28;5037001;28;9076;-62
2023/04/29 08:14:41;;;;;;;;;;;;;;;26.11;44.60;94126.00;5053123;28;7154;-62
2023/04/29 08:17:09;;;;;;;;;;;;;;;26.12;44.61;94125.47;5057391;28;7297;-62
2023/04/29 08:19:35;;;;;;;;;;;;;;;26.12;44.75;94125.47;5036607;28;8965;-62
2023/04/29 08:22:03;;;;;;;;;;;;;;;26.15;44.13;94124.44;5054283;28;8908;-63
2023/04/29 08:24:32;;;;;;;;;;;;;;;26.15;43.88;94118.19;5053392;28;9288;-62
2023/04/29 08:27:00;;;;;;;;;;;;;;;26.13;43.72;94124.22;5052999;28;7388;-63
2023/04/29 08:29:31;;;;;;;;;;;;;;;26.16;43.63;94125.94;5052769;28;9328;-62
2023/04/29 08:31:59;;;;;;;;;;;;;;;26.16;44.34;94125.94;5043844;28;7219;-62
2023/04/29 08:34:26;;;;;;;;;;;;;;;26.18;43.76;94119.91;5052672;28;7024;-62
2023/04/29 08:36:56;;;;;;;;;;;;;;;26.20;44.11;94135.94;5051604;28;8656;-62
2023/04/29 08:39:24;;;;;;;;;;;;;;;26.21;43.35;94127.13;5055971;28;9071;-62
2023/04/29 08:41:52;;;;;;;;;;;;;;;26.22;43.93;94133.38;5056625;28;9138;-62
2023/04/29 08:44:18;;;;;;;;;;;;;;;26.22;43.70;94136.91;5073251;28;7144;-62
2023/04/29 08:46:45;;;;;;;;;;;;;;;26.22;43.67;94136.91;5073867;28;7044;-62
2023/04/29 08:49:12;;;;;;;;;;;;;;;26.25;43.87;94132.34;5060798;28;8732;-63
2023/04/29 08:51:48;;;;;;;;;;;;;;;26.25;43.15;94137.88;5026770;28;7252;-63
2023/04/29 08:54:15;;;;;;;;;;;;;;;26.24;43.10;94136.38;5051257;28;8946;-62
2023/04/29 08:56:45;;;;;;;;;;;;;;;26.26;43.33;94133.84;5058961;28;7031;-62
2023/04/29 08:59:22;;;;;;;;;;;;;;;26.27;42.97;94135.34;5074668;28;7347;-62
2023/04/29 09:01:53;;;;;;;;;;;;;;;26.27;43.51;94141.59;5071890;28;9119;-63
2023/04/29 09:05:10;;;;;;;;;;;;;;;26.27;43.36;94143.59;5075662;28;7418;-62
2023/04/29 09:07:39;;;;;;;;;;;;;;;26.27;43.18;94136.09;4982905;28;9055;-62
2023/04/29 09:10:09;;;;;;;;;;;;;;;26.27;42.59;94138.09;4973701;28;7265;-62
2023/04/29 09:12:37;;;;;;;;;;;;;;;26.27;43.21;94127.81;4974637;28;7744;-62
2023/04/29 09:15:13;;;;;;;;;;;;;;;26.28;43.09;94126.53;4983496;28;7562;-63
2023/04/29 09:17:52;;;;;;;;;;;;;;;26.26;43.14;94123.56;4993554;28;9440;-62
2023/04/29 09:20:21;;;;;;;;;;;;;;;26.28;42.34;94126.53;4974294;28;7242;-63
2023/04/29 09:23:05;;;;;;;;;;;;;;;26.29;43.28;94124.53;4974588;28;9194;-63
2023/04/29 09:25:31;;;;;;;;;;;;;;;26.30;43.19;94128.75;4974514;28;8814;-63
2023/04/29 09:28:21;;;;;;;;;;;;;;;26.30;42.79;94123.25;4977121;28;8697;-62
2023/04/29 09:30:56;;;;;;;;;;;;;;;26.29;42.83;94127.28;4958297;28;7256;-62
2023/04/29 09:33:50;;;;;;;;;;;;;;;26.31;42.53;94130.28;4961788;28;9087;-63
2023/04/29 09:36:55;;;;;;;;;;;;;;;26.33;42.31;94122.97;4993069;28;9057;-63
2023/04/29 09:39:52;;;;;;;;;;;;;;;26.34;42.65;94127.19;4993313;28;6988;-62
2023/04/29 09:42:20;;;;;;;;;;;;;;;26.34;42.78;94135.47;4960131;28;9412;-63
2023/04/29 09:45:08;;;;;;;;;;;;;;;26.34;42.26;94134.75;5091211;28;6969;-60
2023/04/29 09:47:38;;;;;;;;;;;;;;;26.37;42.67;94139.22;5087492;28;8774;-61
2023/04/29 09:50:24;;;;;;;;;;;;;;;26.34;42.04;94124.44;5087124;28;7457;-61
2023/04/29 09:53:28;;;;;;;;;;;;;;;26.36;42.14;94132.22;5067188;28;9155;-60
2023/04/29 09:59:25;;;;;;;;;;;;;;;26.38;41.99;94124.16;5029290;28;9058;-60
2023/04/29 10:01:55;;;;;;;;;;;;;;;26.37;41.66;94120.66;5012642;28;9727;-61
2023/04/29 10:04:36;;;;;;;;;;;;;;;26.38;42.33;94124.16;5039429;28;9682;-61
2023/04/29 10:07:03;;;;;;;;;;;;;;;26.39;42.27;94120.13;5032587;28;7514;-61
2023/04/29 10:09:38;;;;;;;;;;;;;;;26.39;42.35;94120.13;5032499;28;7050;-61
2023/04/29 10:12:26;;;;;;;;;;;;;;;26.39;42.25;94120.13;5015492;28;7626;-61
2023/04/29 10:15:04;;;;;;;;;;;;;;;26.40;42.12;94116.13;5034537;28;9038;-61
2023/04/29 10:18:19;;;;;;;;;;;;;;;26.41;41.90;94112.06;5012592;28;7205;-61
2023/04/29 10:21:03;;;;;;;;;;;;;;;26.40;42.27;94110.59;4970153;28;7400;-60
2023/04/29 10:23:30;;;;;;;;;;;;;;;26.43;41.90;94115.03;4975333;28;7367;-61
2023/04/29 10:26:26;;;;;;;;;;;;;;;26.42;42.32;94114.31;4973074;28;7037;-61
2023/04/29 10:28:58;;;;;;;;;;;;;;;26.43;42.25;94109.53;4931196;29;8747;-61
2023/04/29 10:31:26;;;;;;;;;;;;;;;26.41;41.66;94112.06;4906249;29;7081;-61
2023/04/29 10:34:02;;;;;;;;;;;;;;;26.43;41.91;94104.78;4912084;29;7268;-61
2023/04/29 10:36:38;;;;;;;;;;;;;;;26.42;41.61;94092.25;4913060;29;9057;-60
2023/04/29 10:40:03;;;;;;;;;;;;;;;26.45;42.30;94079.41;4897108;29;7129;-61
2023/04/29 10:43:20;;;;;;;;;;;;;;;26.46;41.98;94086.44;4852539;29;9033;-61
2023/04/29 10:45:46;;;;;;;;;;;;;;;26.45;41.88;94079.41;4852728;29;9383;-61
2023/04/29 10:48:24;;;;;;;;;;;;;;;26.46;41.47;94087.19;4851438;29;9241;-60
2023/04/29 10:50:57;;;;;;;;;;;;;;;26.47;41.17;94077.63;4835272;29;7254;-60
2023/04/29 10:53:27;;;;;;;;;;;;;;;26.46;41.71;94078.16;4840793;29;9331;-61
2023/04/29 10:56:11;;;;;;;;;;;;;;;26.48;41.78;94075.63;4857469;29;7586;-61
2023/04/29 10:59:08;;;;;;;;;;;;;;;26.50;42.00;94075.84;4877372;29;7008;-61
2023/04/29 11:01:45;;;;;;;;;;;;;;;26.52;41.54;94068.53;4864516;29;7296;-61
2023/04/29 11:04:11;;;;;;;;;;;;;;;26.52;41.28;94073.31;4862033;29;9032;-61
2023/04/29 11:07:01;;;;;;;;;;;;;;;26.51;41.61;94061.53;4898845;29;7200;-61
2023/04/29 11:09:37;;;;;;;;;;;;;;;26.52;41.23;94062.28;4868645;29;9050;-61
2023/04/29 11:12:08;;;;;;;;;;;;;;;26.56;41.30;94062.69;4869423;29;8982;-60
2023/04/29 11:14:35;;;;;;;;;;;;;;;26.55;41.41;94061.22;4885009;29;7027;-61
2023/04/29 11:17:14;;;;;;;;;;;;;;;26.57;41.04;94058.69;4963874;28;7249;-61
2023/04/29 11:19:55;;;;;;;;;;;;;;;26.61;41.61;94067.41;4971586;28;7099;-60
2023/04/29 11:22:34;;;;;;;;;;;;;;;26.60;41.09;94063.16;5053817;28;7222;-62
2023/04/29 11:25:27;;;;;;;;;;;;;;;26.61;41.73;94062.63;5032291;28;7652;-60
2023/04/29 11:28:05;;;;;;;;;;;;;;;26.61;42.11;94059.88;5026052;28;8810;-60
2023/04/29 11:31:18;;;;;;;;;;;;;;;26.64;41.57;94063.59;5031625;28;7020;-60
2023/04/29 11:33:45;;;;;;;;;;;;;;;26.65;42.19;94054.03;4978002;28;7124;-61
2023/04/29 11:36:15;;;;;;;;;;;;;;;26.65;41.75;94060.31;4974495;28;9407;-60
2023/04/29 11:38:42;;;;;;;;;;;;;;;26.68;41.67;94059.28;4982414;28;9123;-60
2023/04/29 11:41:10;;;;;;;;;;;;;;;26.70;41.08;94061.50;4964676;28;7294;-60
2023/04/29 11:43:39;;;;;;;;;;;;;;;26.69;41.12;94048.97;4967678;28;7221;-60
2023/04/29 11:46:15;;;;;;;;;;;;;;;26.71;41.26;94051.94;4966742;28;7264;-60
2023/04/29 11:48:51;;;;;;;;;;;;;;;26.71;41.74;94057.44;4962811;28;7717;-60
2023/04/29 11:51:32;;;;;;;;;;;;;;;26.70;41.69;94059.50;4980201;28;8766;-60
2023/04/29 11:54:06;;;;;;;;;;;;;;;26.72;41.72;94058.94;4974284;28;7344;-61
2023/04/29 11:57:10;;;;;;;;;;;;;;;26.75;41.48;94044.13;4973096;28;9127;-61
2023/04/29 11:59:40;;;;;;;;;;;;;;;26.76;41.33;94054.66;4963917;28;8785;-60
2023/04/29 12:02:13;;;;;;;;;;;;;;;26.80;42.01;94035.00;4969313;28;7849;-60
2023/04/29 12:04:56;;;;;;;;;;;;;;;26.79;41.53;94030.78;4963457;28;9456;-60
2023/04/29 12:07:36;;;;;;;;;;;;;;;26.79;41.27;94030.78;4973950;28;9089;-60
2023/04/29 12:10:34;;;;;;;;;;;;;;;26.83;41.27;94036.72;4983400;28;8039;-60
2023/04/29 12:13:10;;;;;;;;;;;;;;;26.83;41.50;94031.97;5007313;28;8720;-60
2023/04/29 12:15:47;;;;;;;;;;;;;;;26.79;41.35;94033.53;5007702;28;7231;-60
2023/04/29 12:18:28;;;;;;;;;;;;;;;26.78;41.79;94029.28;4993924;28;7374;-61
2023/04/29 12:21:06;;;;;;;;;;;;;;;26.78;40.78;94032.03;4993481;28;7265;-60
2023/04/29 12:23:35;;;;;;;;;;;;;;;26.79;41.82;94045.31;4983342;28;8606;-61
2023/04/29 12:26:01;;;;;;;;;;;;;;;26.80;41.33;94038.53;4995092;28;9394;-61
2023/04/29 12:29:15;;;;;;;;;;;;;;;26.81;41.15;94039.28;4997383;28;8944;-61
2023/04/29 12:31:54;;;;;;;;;;;;;;;26.80;41.07;94044.03;4989726;28;7291;-62
2023/04/29 12:34:38;;;;;;;;;;;;;;;26.81;41.30;94042.03;4985957;28;9274;-64
2023/04/29 12:37:06;;;;;;;;;;;;;;;26.79;41.26;94044.56;4992263;28;9063;-64
2023/04/29 12:39:33;;;;;;;;;;;;;;;26.78;40.84;94051.34;4981403;28;9086;-64
2023/04/29 12:42:30;;;;;;;;;;;;;;;26.79;41.08;94048.09;4996295;28;9162;-63
2023/04/29 12:44:57;;;;;;;;;;;;;;;26.79;41.29;94052.84;4993814;28;7508;-64
2023/04/29 12:47:38;;;;;;;;;;;;;;;26.79;41.20;94055.63;5004983;28;8790;-64
2023/04/29 12:50:37;;;;;;;;;;;;;;;26.77;40.90;94056.13;5024459;28;7333;-64
2023/04/29 12:53:25;;;;;;;;;;;;;;;26.77;40.90;94056.13;5007202;28;7036;-64
2023/04/29 12:56:05;;;;;;;;;;;;;;;26.76;40.47;94048.38;5003068;28;7333;-64
2023/04/29 12:58:41;;;;;;;;;;;;;;;26.77;40.47;94045.09;5004960;28;7842;-63
2023/04/29 13:01:08;;;;;;;;;;;;;;;26.77;40.98;94044.34;5002339;28;7867;-64
2023/04/29 13:03:34;;;;;;;;;;;;;;;26.77;41.14;94050.59;5010527;28;9333;-64
2023/04/29 13:06:13;;;;;;;;;;;;;;;26.78;40.76;94049.34;4989580;28;9116;-64
2023/04/29 13:08:43;;;;;;;;;;;;;;;26.78;40.60;94054.09;5004378;28;9112;-63
2023/04/29 13:11:12;;;;;;;;;;;;;;;26.77;41.09;94052.63;4990734;28;8971;-63
2023/04/29 13:13:48;;;;;;;;;;;;;;;26.80;40.58;94051.56;4994673;28;9735;-63
2023/04/29 13:16:15;;;;;;;;;;;;;;;26.80;40.80;94057.09;4990256;28;7133;-63
2023/04/29 13:18:57;;;;;;;;;;;;;;;26.80;40.02;94048.81;4987012;28;7301;-63
2023/04/29 13:21:33;;;;;;;;;;;;;;;26.80;40.49;94051.56;4987219;28;8731;-63
2023/04/29 13:24:01;;;;;;;;;;;;;;;26.83;40.25;94039.47;5011067;28;9223;-64
2023/04/29 13:26:49;;;;;;;;;;;;;;;26.84;40.54;94049.22;4977946;28;9608;-63
2023/04/29 13:29:23;;;;;;;;;;;;;;;26.85;40.17;94045.22;5016875;28;7292;-63
2023/04/29 13:31:51;;;;;;;;;;;;;;;26.85;40.76;94039.69;5020836;28;8787;-64
2023/04/29 13:34:20;;;;;;;;;;;;;;;26.87;40.33;94042.69;5030362;28;7306;-64
2023/04/29 13:37:04;;;;;;;;;;;;;;;26.86;40.31;94032.91;5033493;28;9236;-64
2023/04/29 13:39:35;;;;;;;;;;;;;;;26.87;40.20;94042.69;5050131;28;8803;-64
2023/04/29 13:42:11;;;;;;;;;;;;;;;26.87;40.38;94037.91;5032600;28;9128;-63
2023/04/29 13:44:37;;;;;;;;;;;;;;;26.87;40.67;94040.66;5043564;28;9390;-63
2023/04/29 13:47:21;;;;;;;;;;;;;;;26.92;40.43;94042.56;5033423;28;8549;-63